createdAt,value
2023-02-19T00:01:21.921Z,100353.31
2023-02-19T00:03:51.494Z,100345.47
2023-02-19T00:06:20.506Z,100336.69
2023-02-19T00:08:48.456Z,100339.28
2023-02-19T00:11:18.780Z,100334.06
2023-02-19T00:13:49.037Z,100329.72
2023-02-19T00:16:20.641Z,100325.41
2023-02-19T00:18:49.418Z,100315.84
2023-02-19T00:21:19.366Z,100306.25
2023-02-19T00:23:49.686Z,100315.69
2023-02-19T00:26:18.893Z,100309.50
2023-02-19T00:28:47.393Z,100302.53
2023-02-19T00:31:18.569Z,100305.16
2023-02-19T00:33:48.409Z,100308.59
2023-02-19T00:36:16.388Z,100325.06
2023-02-19T00:38:45.394Z,100325.91
2023-02-19T00:41:14.353Z,100314.53
2023-02-19T00:43:43.924Z,100311.03
2023-02-19T00:46:11.671Z,100314.47
2023-02-19T00:48:41.269Z,100306.66
2023-02-19T00:51:10.710Z,100320.59
2023-02-19T00:53:40.178Z,100313.63
2023-02-19T00:56:08.477Z,100319.00
2023-02-19T00:58:36.395Z,100324.97
2023-02-19T01:01:05.580Z,100338.84
2023-02-19T01:03:33.690Z,100337.97
2023-02-19T01:06:01.824Z,100341.44
2023-02-19T01:08:32.258Z,100338.84
2023-02-19T01:11:05.876Z,100339.69
2023-02-19T01:13:34.404Z,100345.81
2023-02-19T01:16:06.010Z,100342.47
2023-02-19T01:18:34.740Z,100347.81
2023-02-19T01:21:06.641Z,100353.06
2023-02-19T01:23:39.189Z,100349.56
2023-02-19T01:26:08.332Z,100347.00
2023-02-19T01:28:36.044Z,100343.53
2023-02-19T01:31:05.094Z,100342.66
2023-02-19T01:33:35.028Z,100335.72
2023-02-19T01:36:03.952Z,100332.22
2023-02-19T01:38:31.922Z,100340.03
2023-02-19T01:41:03.807Z,100326.28
2023-02-19T01:43:33.357Z,100332.28
2023-02-19T01:46:02.841Z,100336.59
2023-02-19T01:48:34.269Z,100342.72
2023-02-19T01:51:08.428Z,100341.84
2023-02-19T01:53:39.943Z,100345.31
2023-02-19T01:56:10.058Z,100330.56
2023-02-19T01:58:38.609Z,100328.78
2023-02-19T02:01:09.639Z,100315.84
2023-02-19T02:03:40.624Z,100317.66
2023-02-19T02:06:14.626Z,100317.66
2023-02-19T02:08:42.534Z,100302.09
2023-02-19T02:11:11.819Z,100295.16
2023-02-19T02:13:40.874Z,100300.31
2023-02-19T02:16:21.247Z,100305.53
2023-02-19T02:19:00.388Z,100295.09
2023-02-19T02:21:36.332Z,100274.25
2023-02-19T02:24:18.306Z,100275.19
2023-02-19T02:27:04.236Z,100283.88
2023-02-19T02:30:10.134Z,100271.69
2023-02-19T02:32:43.276Z,100271.69
2023-02-19T02:35:13.795Z,100271.69
2023-02-19T02:37:44.017Z,100276.03
2023-02-19T02:40:12.702Z,100278.63
2023-02-19T02:42:44.005Z,100279.50
2023-02-19T02:45:27.758Z,100286.44
2023-02-19T02:47:58.630Z,100278.63
2023-02-19T02:50:31.111Z,100288.13
2023-02-19T02:53:02.335Z,100284.78
2023-02-19T02:55:34.697Z,100287.38
2023-02-19T02:58:03.264Z,100291.66
2023-02-19T03:00:35.817Z,100289.91
2023-02-19T03:03:05.049Z,100297.72
2023-02-19T03:05:33.464Z,100297.69
2023-02-19T03:08:06.389Z,100286.63
2023-02-19T03:10:40.847Z,100276.13
2023-02-19T03:13:27.666Z,100275.31
2023-02-19T03:16:02.596Z,100282.31
2023-02-19T03:18:34.247Z,100301.41
2023-02-19T03:21:04.242Z,100301.41
2023-02-19T03:23:35.417Z,100300.53
2023-02-19T03:26:04.373Z,100302.31
2023-02-19T03:28:35.238Z,100307.53
2023-02-19T03:31:11.532Z,100307.56
2023-02-19T03:33:43.050Z,100308.44
2023-02-19T03:36:13.803Z,100307.75
2023-02-19T03:38:44.955Z,100306.13
2023-02-19T03:41:22.153Z,100318.47
2023-02-19T03:44:01.315Z,100323.06
2023-02-19T03:46:42.155Z,100342.81
2023-02-19T03:49:18.036Z,100339.22
2023-02-19T03:51:51.323Z,100336.63
2023-02-19T03:54:23.498Z,100343.59
2023-02-19T03:56:56.459Z,100334.94
2023-02-19T03:59:30.997Z,100339.38
2023-02-19T04:02:03.539Z,100335.13
2023-02-19T04:04:36.526Z,100328.34
2023-02-19T04:07:04.429Z,100338.84
2023-02-19T04:09:37.568Z,100355.22
2023-02-19T04:12:08.260Z,100365.50
2023-02-19T04:14:41.190Z,100376.53
2023-02-19T04:17:17.000Z,100379.78
2023-02-19T04:19:48.301Z,100368.44
2023-02-19T04:22:17.837Z,100375.34
2023-02-19T04:24:49.377Z,100401.28
2023-02-19T04:27:17.919Z,100398.63
2023-02-19T04:29:46.532Z,100396.00
2023-02-19T04:32:15.884Z,100415.09
2023-02-19T04:34:43.446Z,100417.66
2023-02-19T04:37:12.115Z,100424.66
2023-02-19T04:39:39.837Z,100430.69
2023-02-19T04:42:07.909Z,100427.28
2023-02-19T04:44:35.730Z,100436.81
2023-02-19T04:47:03.574Z,100450.66
2023-02-19T04:49:32.660Z,100429.00
2023-02-19T04:52:00.590Z,100435.09
2023-02-19T04:54:28.614Z,100426.53
2023-02-19T04:56:56.178Z,100444.69
2023-02-19T04:59:24.894Z,100435.25
2023-02-19T05:01:52.658Z,100442.16
2023-02-19T05:04:20.461Z,100460.34
2023-02-19T05:06:49.849Z,100462.09
2023-02-19T05:09:17.673Z,100468.16
2023-02-19T05:11:45.218Z,100462.91
2023-02-19T05:14:12.841Z,100460.31
2023-02-19T05:16:41.795Z,100461.22
2023-02-19T05:19:11.346Z,100450.84
2023-02-19T05:21:39.570Z,100443.00
2023-02-19T05:24:09.002Z,100445.59
2023-02-19T05:26:36.798Z,100451.66
2023-02-19T05:29:04.566Z,100449.09
2023-02-19T05:31:33.165Z,100436.16
2023-02-19T05:34:00.916Z,100430.97
2023-02-19T05:36:28.933Z,100455.28
2023-02-19T05:38:57.679Z,100457.94
2023-02-19T05:41:28.501Z,100458.84
2023-02-19T05:43:56.812Z,100477.84
2023-02-19T05:46:26.098Z,100483.66
2023-02-19T05:48:53.961Z,100493.00
2023-02-19T05:51:24.162Z,100495.50
2023-02-19T05:53:52.659Z,100493.63
2023-02-19T05:56:31.429Z,100499.53
2023-02-19T05:59:00.820Z,100508.97
2023-02-19T06:01:28.915Z,100533.16
2023-02-19T06:03:57.879Z,100542.75
2023-02-19T06:06:26.739Z,100561.09
2023-02-19T06:08:54.680Z,100562.03
2023-02-19T06:11:22.652Z,100555.97
2023-02-19T06:13:52.946Z,100546.50
2023-02-19T06:16:21.773Z,100536.97
2023-02-19T06:18:49.637Z,100552.53
2023-02-19T06:21:18.553Z,100568.22
2023-02-19T06:23:46.398Z,100570.75
2023-02-19T06:26:16.329Z,100582.72
2023-02-19T06:28:44.748Z,100588.00
2023-02-19T06:31:14.678Z,100602.59
2023-02-19T06:33:42.751Z,100602.59
2023-02-19T06:36:13.280Z,100617.38
2023-02-19T06:38:41.066Z,100612.16
2023-02-19T06:41:12.528Z,100593.13
2023-02-19T06:43:42.394Z,100600.13
2023-02-19T06:46:12.284Z,100594.91
2023-02-19T06:48:44.752Z,100611.31
2023-02-19T06:51:13.289Z,100613.91
2023-02-19T06:53:41.794Z,100613.97
2023-02-19T06:56:24.206Z,100611.22
2023-02-19T06:58:52.560Z,100611.81
2023-02-19T07:01:20.537Z,100621.16
2023-02-19T07:03:50.046Z,100625.34
2023-02-19T07:06:17.648Z,100627.00
2023-02-19T07:08:46.688Z,100623.41
2023-02-19T07:11:15.130Z,100606.56
2023-02-19T07:13:42.988Z,100597.19
2023-02-19T07:16:12.116Z,100601.59
2023-02-19T07:18:40.886Z,100588.41
2023-02-19T07:21:13.404Z,100623.16
2023-02-19T07:23:43.779Z,100619.50
2023-02-19T07:26:13.649Z,100603.22
2023-02-19T07:28:41.534Z,100610.09
2023-02-19T07:31:10.134Z,100608.28
2023-02-19T07:33:38.543Z,100613.00
2023-02-19T07:36:08.246Z,100591.97
2023-02-19T07:38:37.594Z,100593.66
2023-02-19T07:41:06.571Z,100587.50
2023-02-19T07:43:36.429Z,100579.44
2023-02-19T07:46:05.171Z,100571.97
2023-02-19T07:48:34.095Z,100551.22
2023-02-19T07:51:02.408Z,100564.97
2023-02-19T07:53:30.693Z,100582.38
2023-02-19T07:56:02.010Z,100588.03
2023-02-19T07:58:30.148Z,100587.56
2023-02-19T08:01:07.586Z,100608.16
2023-02-19T08:03:36.194Z,100595.63
2023-02-19T08:06:05.390Z,100594.06
2023-02-19T08:08:33.806Z,100586.25
2023-02-19T08:11:05.203Z,100601.44
2023-02-19T08:13:33.200Z,100603.72
2023-02-19T08:16:20.140Z,100607.97
2023-02-19T08:18:52.244Z,100587.53
2023-02-19T08:21:20.392Z,100589.78
2023-02-19T08:23:50.599Z,100589.94
2023-02-19T08:26:20.749Z,100577.34
2023-02-19T08:28:48.958Z,100589.72
2023-02-19T08:31:16.958Z,100576.69
2023-02-19T08:33:45.705Z,100581.25
2023-02-19T08:36:13.700Z,100581.25
2023-02-19T08:38:41.253Z,100565.66
2023-02-19T08:41:11.859Z,100582.69
2023-02-19T08:43:42.114Z,100579.84
2023-02-19T08:46:11.553Z,100583.66
2023-02-19T08:48:40.037Z,100574.34
2023-02-19T08:51:10.438Z,100572.00
2023-02-19T08:53:40.635Z,100557.84
2023-02-19T08:56:10.411Z,100546.94
2023-02-19T08:58:38.698Z,100546.81
2023-02-19T09:01:10.794Z,100535.63
2023-02-19T09:03:38.509Z,100553.75
2023-02-19T09:06:06.889Z,100554.31
2023-02-19T09:08:36.826Z,100558.50
2023-02-19T09:11:05.398Z,100554.31
2023-02-19T09:13:33.283Z,100563.38
2023-02-19T09:16:03.251Z,100567.78
2023-02-19T09:18:32.687Z,100565.03
2023-02-19T09:21:01.059Z,100558.03
2023-02-19T09:23:28.776Z,100577.84
2023-02-19T09:25:59.919Z,100594.28
2023-02-19T09:28:28.230Z,100599.06
2023-02-19T09:30:55.846Z,100585.25
2023-02-19T09:33:23.593Z,100579.22
2023-02-19T09:35:53.018Z,100587.47
2023-02-19T09:38:20.786Z,100588.84
2023-02-19T09:40:48.390Z,100577.91
2023-02-19T09:43:20.927Z,100576.25
2023-02-19T09:45:49.588Z,100586.53
2023-02-19T09:48:17.393Z,100589.19
2023-02-19T09:50:47.832Z,100582.56
2023-02-19T09:53:21.863Z,100580.91
2023-02-19T09:55:50.027Z,100583.50
2023-02-19T09:58:24.278Z,100582.16
2023-02-19T10:00:55.064Z,100580.16
2023-02-19T10:03:27.362Z,100583.25
2023-02-19T10:05:55.506Z,100565.16
2023-02-19T10:08:24.588Z,100537.34
2023-02-19T10:10:54.743Z,100550.13
2023-02-19T10:13:28.204Z,100542.19
2023-02-19T10:15:58.005Z,100551.41
2023-02-19T10:18:28.373Z,100543.75
2023-02-19T10:20:57.242Z,100532.78
2023-02-19T10:23:26.506Z,100530.56
2023-02-19T10:25:57.373Z,100525.09
2023-02-19T10:28:27.950Z,100534.41
2023-02-19T10:30:58.367Z,100546.13
2023-02-19T10:33:26.678Z,100544.81
2023-02-19T10:35:56.706Z,100533.50
2023-02-19T10:38:30.051Z,100536.47
2023-02-19T10:41:04.549Z,100526.34
2023-02-19T10:43:36.726Z,100540.00
2023-02-19T10:46:07.200Z,100531.16
2023-02-19T10:48:38.429Z,100528.47
2023-02-19T10:51:09.653Z,100523.09
2023-02-19T10:53:44.259Z,100520.91
2023-02-19T10:56:14.866Z,100517.81
2023-02-19T10:58:44.106Z,100510.63
2023-02-19T11:01:17.614Z,100510.19
2023-02-19T11:03:46.490Z,100508.47
2023-02-19T11:06:17.702Z,100502.69
2023-02-19T11:08:52.518Z,100488.53
2023-02-19T11:11:26.186Z,100477.56
2023-02-19T11:13:57.231Z,100486.63
2023-02-19T11:16:38.654Z,100484.88
2023-02-19T11:19:06.618Z,100484.00
2023-02-19T11:21:34.266Z,100495.03
2023-02-19T11:24:03.810Z,100492.41
2023-02-19T11:26:33.874Z,100494.34
2023-02-19T11:29:11.461Z,100503.88
2023-02-19T11:31:39.709Z,100508.56
2023-02-19T11:34:29.638Z,100519.22
2023-02-19T11:37:18.754Z,100517.88
2023-02-19T11:39:49.613Z,100530.75
2023-02-19T11:42:45.784Z,100521.03
2023-02-19T11:45:27.578Z,100519.88
2023-02-19T11:48:24.691Z,100515.19
2023-02-19T11:51:15.787Z,100518.63
2023-02-19T11:53:49.793Z,100516.81
2023-02-19T11:56:23.823Z,100519.75
2023-02-19T11:59:02.145Z,100510.09
2023-02-19T12:01:51.781Z,100500.78
2023-02-19T12:04:55.630Z,100503.13
2023-02-19T12:07:41.188Z,100490.63
2023-02-19T12:10:20.471Z,100492.97
2023-02-19T12:13:02.336Z,100479.44
2023-02-19T12:15:39.845Z,100466.75
2023-02-19T12:18:39.715Z,100457.03
2023-02-19T12:21:22.325Z,100457.28
2023-02-19T12:24:11.852Z,100451.91
2023-02-19T12:26:47.501Z,100447.13
2023-02-19T12:29:33.042Z,100442.16
2023-02-19T12:32:26.179Z,100455.53
2023-02-19T12:35:29.016Z,100469.25
2023-02-19T12:38:07.906Z,100467.31
2023-02-19T12:40:50.339Z,100466.22
2023-02-19T12:43:19.313Z,100460.69
2023-02-19T12:45:55.511Z,100458.06
2023-02-19T12:48:29.568Z,100456.03
2023-02-19T12:51:02.894Z,100451.53
2023-02-19T12:53:40.409Z,100449.75
2023-02-19T12:56:14.952Z,100451.44
2023-02-19T12:58:48.230Z,100452.16
2023-02-19T13:01:24.331Z,100458.31
2023-02-19T13:04:03.744Z,100452.19
2023-02-19T13:06:37.726Z,100460.09
2023-02-19T13:09:27.927Z,100456.81
2023-02-19T13:12:02.093Z,100457.72
2023-02-19T13:14:34.523Z,100454.28
2023-02-19T13:17:13.536Z,100456.25
2023-02-19T13:19:43.695Z,100460.94
2023-02-19T13:22:22.683Z,100449.66
2023-02-19T13:24:52.306Z,100457.66
2023-02-19T13:27:37.357Z,100451.78
2023-02-19T13:30:24.909Z,100447.63
2023-02-19T13:33:04.492Z,100441.72
2023-02-19T13:36:11.083Z,100441.72
2023-02-19T13:38:41.396Z,100438.25
2023-02-19T13:41:19.839Z,100439.25
2023-02-19T13:43:56.091Z,100429.66
2023-02-19T13:46:36.419Z,100427.88
2023-02-19T13:49:42.405Z,100427.22
2023-02-19T13:52:37.077Z,100428.22
2023-02-19T13:55:42.438Z,100429.22
2023-02-19T13:58:52.192Z,100424.09
2023-02-19T14:01:40.737Z,100412.84
2023-02-19T14:04:18.397Z,100415.72
2023-02-19T14:07:45.644Z,100411.59
2023-02-19T14:10:55.626Z,100406.59
2023-02-19T14:14:05.765Z,100413.78
2023-02-19T14:17:13.003Z,100420.91
2023-02-19T14:19:50.901Z,100412.41
2023-02-19T14:22:47.685Z,100414.38
2023-02-19T14:25:29.115Z,100409.28
2023-02-19T14:28:02.030Z,100396.31
2023-02-19T14:30:31.897Z,100405.13
2023-02-19T14:33:10.512Z,100407.09
2023-02-19T14:35:45.456Z,100411.59
2023-02-19T14:38:20.226Z,100414.34
2023-02-19T14:40:51.518Z,100417.97
2023-02-19T14:43:22.390Z,100408.44
2023-02-19T14:45:53.841Z,100411.97
2023-02-19T14:48:25.797Z,100410.41
2023-02-19T14:51:02.254Z,100405.19
2023-02-19T14:53:33.066Z,100407.00
2023-02-19T14:56:02.024Z,100408.94
2023-02-19T14:58:32.409Z,100411.63
2023-02-19T15:01:01.460Z,100412.69
2023-02-19T15:03:34.391Z,100417.16
2023-02-19T15:06:06.120Z,100415.78
2023-02-19T15:08:38.056Z,100408.28
2023-02-19T15:11:12.530Z,100406.59
2023-02-19T15:13:41.769Z,100408.59
2023-02-19T15:16:09.698Z,100402.66
2023-02-19T15:18:37.946Z,100398.72
2023-02-19T15:21:24.779Z,100407.63
2023-02-19T15:23:55.080Z,100401.75
2023-02-19T15:26:29.938Z,100407.88
2023-02-19T15:28:59.619Z,100401.94
2023-02-19T15:31:27.509Z,100408.97
2023-02-19T15:33:56.009Z,100407.41
2023-02-19T15:36:30.316Z,100414.53
2023-02-19T15:39:01.608Z,100413.06
2023-02-19T15:41:33.169Z,100420.31
2023-02-19T15:44:22.360Z,100414.28
2023-02-19T15:46:50.376Z,100419.63
2023-02-19T15:49:21.610Z,100430.19
2023-02-19T15:51:55.638Z,100416.38
2023-02-19T15:54:27.933Z,100424.84
2023-02-19T15:57:00.439Z,100431.88
2023-02-19T15:59:32.253Z,100419.09
2023-02-19T16:02:01.166Z,100422.53
2023-02-19T16:04:29.823Z,100428.78
2023-02-19T16:06:59.829Z,100435.09
2023-02-19T16:09:31.009Z,100435.19
2023-02-19T16:12:01.475Z,100437.03
2023-02-19T16:14:33.186Z,100442.19
2023-02-19T16:17:12.298Z,100438.84
2023-02-19T16:19:46.378Z,100444.13
2023-02-19T16:22:17.943Z,100458.19
2023-02-19T16:24:48.776Z,100460.94
2023-02-19T16:27:29.647Z,100454.00
2023-02-19T16:29:58.112Z,100446.09
2023-02-19T16:32:26.096Z,100446.16
2023-02-19T16:34:54.280Z,100440.06
2023-02-19T16:37:36.424Z,100441.09
2023-02-19T16:40:49.454Z,100449.78
2023-02-19T16:43:30.590Z,100439.44
2023-02-19T16:45:59.794Z,100447.38
2023-02-19T16:48:28.029Z,100431.84
2023-02-19T16:51:00.808Z,100438.91
2023-02-19T16:53:28.642Z,100439.81
2023-02-19T16:56:00.195Z,100437.22
2023-02-19T16:58:29.363Z,100438.88
2023-02-19T17:00:57.580Z,100448.31
2023-02-19T17:03:26.013Z,100433.41
2023-02-19T17:05:53.907Z,100435.78
2023-02-19T17:08:32.209Z,100428.63
2023-02-19T17:11:02.475Z,100438.22
2023-02-19T17:13:32.685Z,100451.28
2023-02-19T17:16:00.346Z,100440.72
2023-02-19T17:18:28.118Z,100439.34
2023-02-19T17:20:58.477Z,100441.03
2023-02-19T17:23:26.104Z,100437.66
2023-02-19T17:25:53.888Z,100429.06
2023-02-19T17:28:21.919Z,100428.34
2023-02-19T17:30:50.961Z,100420.59
2023-02-19T17:33:18.831Z,100423.34
2023-02-19T17:35:46.464Z,100426.91
2023-02-19T17:38:14.540Z,100417.44
2023-02-19T17:40:42.649Z,100407.25
2023-02-19T17:43:10.613Z,100405.97
2023-02-19T17:45:38.693Z,100405.38
2023-02-19T17:48:11.755Z,100403.16
2023-02-19T17:50:39.818Z,100401.81
2023-02-19T17:53:08.569Z,100403.97
2023-02-19T17:55:36.296Z,100410.19
2023-02-19T17:58:06.126Z,100404.25
2023-02-19T18:00:33.822Z,100394.28
2023-02-19T18:03:02.762Z,100384.19
2023-02-19T18:05:31.963Z,100391.28
2023-02-19T18:07:59.634Z,100386.28
2023-02-19T18:10:27.549Z,100393.34
2023-02-19T18:12:55.407Z,100402.09
2023-02-19T18:15:24.650Z,100390.09
2023-02-19T18:17:53.699Z,100400.50
2023-02-19T18:20:25.923Z,100401.66
2023-02-19T18:22:56.295Z,100398.41
2023-02-19T18:25:24.415Z,100394.16
2023-02-19T18:27:52.579Z,100395.16
2023-02-19T18:30:22.258Z,100394.44
2023-02-19T18:32:51.007Z,100387.56
2023-02-19T18:35:19.942Z,100397.13
2023-02-19T18:37:51.165Z,100397.09
2023-02-19T18:40:21.462Z,100404.81
2023-02-19T18:42:49.723Z,100401.34
2023-02-19T18:45:18.127Z,100396.22
2023-02-19T18:47:46.962Z,100397.91
2023-02-19T18:50:14.992Z,100396.28
2023-02-19T18:52:42.637Z,100410.09
2023-02-19T18:55:11.518Z,100400.47
2023-02-19T18:57:40.485Z,100407.41
2023-02-19T19:00:09.499Z,100400.50
2023-02-19T19:02:48.678Z,100400.66
2023-02-19T19:05:18.829Z,100403.38
2023-02-19T19:07:46.489Z,100396.50
2023-02-19T19:10:17.185Z,100387.94
2023-02-19T19:12:46.257Z,100396.56
2023-02-19T19:15:17.049Z,100396.56
2023-02-19T19:17:45.340Z,100396.63
2023-02-19T19:20:14.285Z,100392.28
2023-02-19T19:22:43.110Z,100390.59
2023-02-19T19:25:10.693Z,100394.03
2023-02-19T19:27:40.925Z,100389.66
2023-02-19T19:30:10.899Z,100384.41
2023-02-19T19:32:38.946Z,100389.50
2023-02-19T19:35:07.084Z,100394.69
2023-02-19T19:37:35.058Z,100395.47
2023-02-19T19:40:02.965Z,100395.31
2023-02-19T19:42:30.938Z,100389.19
2023-02-19T19:44:58.715Z,100392.47
2023-02-19T19:47:28.024Z,100391.47
2023-02-19T19:49:55.869Z,100381.75
2023-02-19T19:52:23.596Z,100379.84
2023-02-19T19:54:51.117Z,100380.56
2023-02-19T19:57:18.882Z,100375.25
2023-02-19T19:59:49.054Z,100368.16
2023-02-19T20:02:17.260Z,100364.59
2023-02-19T20:04:46.401Z,100368.78
2023-02-19T20:07:14.119Z,100363.53
2023-02-19T20:09:47.778Z,100358.22
2023-02-19T20:12:16.025Z,100351.19
2023-02-19T20:14:44.607Z,100362.44
2023-02-19T20:17:14.859Z,100354.50
2023-02-19T20:19:45.256Z,100361.38
2023-02-19T20:22:14.308Z,100369.97
2023-02-19T20:24:41.997Z,100364.66
2023-02-19T20:27:11.955Z,100363.88
2023-02-19T20:29:39.489Z,100355.16
2023-02-19T20:32:07.287Z,100365.53
2023-02-19T20:34:35.654Z,100369.81
2023-02-19T20:37:03.630Z,100369.75
2023-02-19T20:39:34.382Z,100368.81
2023-02-19T20:42:01.950Z,100360.88
2023-02-19T20:44:31.984Z,100365.16
2023-02-19T20:47:00.676Z,100361.72
2023-02-19T20:49:30.550Z,100362.59
2023-02-19T20:52:01.572Z,100369.53
2023-02-19T20:54:30.775Z,100390.41
2023-02-19T20:57:02.074Z,100387.81
2023-02-19T20:59:31.898Z,100392.25
2023-02-19T21:02:00.481Z,100374.94
2023-02-19T21:04:28.405Z,100388.84
2023-02-19T21:06:56.791Z,100395.81
2023-02-19T21:09:25.142Z,100414.06
2023-02-19T21:11:53.139Z,100422.75
2023-02-19T21:14:24.117Z,100441.91
2023-02-19T21:16:51.687Z,100459.44
2023-02-19T21:19:19.911Z,100459.75
2023-02-19T21:21:47.880Z,100465.19
2023-02-19T21:24:15.891Z,100471.47
2023-02-19T21:26:44.385Z,100472.53
2023-02-19T21:29:16.891Z,100484.94
2023-02-19T21:31:48.090Z,100483.28
2023-02-19T21:34:18.620Z,100505.16
2023-02-19T21:36:46.385Z,100492.25
2023-02-19T21:39:16.734Z,100506.19
2023-02-19T21:41:44.611Z,100525.25
2023-02-19T21:44:13.384Z,100520.06
2023-02-19T21:46:41.360Z,100512.41
2023-02-19T21:49:11.704Z,100527.97
2023-02-19T21:51:40.619Z,100531.47
2023-02-19T21:54:13.239Z,100527.16
2023-02-19T21:56:40.839Z,100526.31
2023-02-19T21:59:08.830Z,100531.50
2023-02-19T22:01:38.368Z,100533.22
2023-02-19T22:04:10.781Z,100527.13
2023-02-19T22:06:38.934Z,100527.88
2023-02-19T22:09:13.374Z,100527.81
2023-02-19T22:11:42.832Z,100535.59
2023-02-19T22:14:10.823Z,100540.81
2023-02-19T22:16:39.668Z,100542.59
2023-02-19T22:19:07.600Z,100555.50
2023-02-19T22:21:41.270Z,100563.28
2023-02-19T22:24:15.439Z,100558.06
2023-02-19T22:26:43.465Z,100558.00
2023-02-19T22:29:13.974Z,100563.22
2023-02-19T22:31:42.551Z,100558.91
2023-02-19T22:34:10.408Z,100547.63
2023-02-19T22:36:39.571Z,100559.72
2023-02-19T22:39:27.826Z,100564.97
2023-02-19T22:41:55.450Z,100572.84
2023-02-19T22:44:23.261Z,100580.66
2023-02-19T22:46:55.287Z,100594.59
2023-02-19T22:49:23.839Z,100598.06
2023-02-19T22:51:58.496Z,100592.78
2023-02-19T22:54:26.383Z,100589.31
2023-02-19T22:56:54.291Z,100592.78
2023-02-19T22:59:22.976Z,100588.50
2023-02-19T23:01:51.512Z,100578.22
2023-02-19T23:04:21.862Z,100601.59
2023-02-19T23:06:49.798Z,100594.75
2023-02-19T23:09:21.271Z,100587.09
2023-02-19T23:11:48.921Z,100602.81
2023-02-19T23:14:20.260Z,100615.16
2023-02-19T23:16:48.309Z,100615.28
2023-02-19T23:19:19.118Z,100625.00
2023-02-19T23:21:47.120Z,100632.03
2023-02-19T23:24:15.373Z,100647.78
2023-02-19T23:26:46.493Z,100645.38
2023-02-19T23:29:16.608Z,100663.56
2023-02-19T23:31:44.526Z,100668.00
2023-02-19T23:34:12.530Z,100681.97
2023-02-19T23:36:41.009Z,100687.22
2023-02-19T23:39:09.564Z,100684.72
2023-02-19T23:41:37.210Z,100690.00
2023-02-19T23:44:06.732Z,100688.28
2023-02-19T23:46:34.395Z,100690.03
2023-02-19T23:49:02.088Z,100694.38
2023-02-19T23:51:29.862Z,100697.00
2023-02-19T23:53:57.562Z,100697.84
2023-02-19T23:56:25.693Z,100697.00
2023-02-19T23:58:53.590Z,100683.19
